sensor_id;sensor_type;location;lat;lon;timestamp;P1;durP1;ratioP1;P2;durP2;ratioP2
80653;SDS011;70020;45.524;10.240;2023-07-13T00:01:26;4.88;;;2.13;;
80653;SDS011;70020;45.524;10.240;2023-07-13T00:03:53;6.13;;;2.67;;
80653;SDS011;70020;45.524;10.240;2023-07-13T00:06:19;6.97;;;2.53;;
80653;SDS011;70020;45.524;10.240;2023-07-13T00:08:45;4.55;;;2.28;;
80653;SDS011;70020;45.524;10.240;2023-07-13T00:11:12;3.55;;;1.92;;
80653;SDS011;70020;45.524;10.240;2023-07-13T00:13:38;3.40;;;1.98;;
80653;SDS011;70020;45.524;10.240;2023-07-13T00:18:30;7.30;;;2.33;;
80653;SDS011;70020;45.524;10.240;2023-07-13T00:20:56;6.32;;;2.60;;
80653;SDS011;70020;45.524;10.240;2023-07-13T00:23:34;4.55;;;2.28;;
80653;SDS011;70020;45.524;10.240;2023-07-13T00:26:00;6.70;;;2.78;;
80653;SDS011;70020;45.524;10.240;2023-07-13T00:28:27;8.20;;;3.20;;
80653;SDS011;70020;45.524;10.240;2023-07-13T00:30:53;6.63;;;2.55;;
80653;SDS011;70020;45.524;10.240;2023-07-13T00:35:45;5.55;;;2.67;;
80653;SDS011;70020;45.524;10.240;2023-07-13T00:40:36;6.50;;;2.67;;
80653;SDS011;70020;45.524;10.240;2023-07-13T00:47:55;6.43;;;2.50;;
80653;SDS011;70020;45.524;10.240;2023-07-13T00:50:23;5.43;;;2.65;;
80653;SDS011;70020;45.524;10.240;2023-07-13T00:52:50;6.50;;;2.75;;
80653;SDS011;70020;45.524;10.240;2023-07-13T00:55:19;7.57;;;2.88;;
80653;SDS011;70020;45.524;10.240;2023-07-13T00:57:47;7.35;;;2.97;;
80653;SDS011;70020;45.524;10.240;2023-07-13T01:00:13;5.68;;;2.75;;
80653;SDS011;70020;45.524;10.240;2023-07-13T01:02:41;7.78;;;3.03;;
80653;SDS011;70020;45.524;10.240;2023-07-13T01:05:12;6.05;;;2.63;;
80653;SDS011;70020;45.524;10.240;2023-07-13T01:07:41;8.10;;;3.00;;
80653;SDS011;70020;45.524;10.240;2023-07-13T01:10:09;7.38;;;2.83;;
80653;SDS011;70020;45.524;10.240;2023-07-13T01:12:35;9.30;;;3.10;;
80653;SDS011;70020;45.524;10.240;2023-07-13T01:17:28;6.70;;;2.88;;
80653;SDS011;70020;45.524;10.240;2023-07-13T01:19:54;11.32;;;3.20;;
80653;SDS011;70020;45.524;10.240;2023-07-13T01:22:21;14.15;;;3.22;;
80653;SDS011;70020;45.524;10.240;2023-07-13T01:24:51;5.97;;;3.67;;
80653;SDS011;70020;45.524;10.240;2023-07-13T01:27:24;8.48;;;3.25;;
80653;SDS011;70020;45.524;10.240;2023-07-13T01:29:51;6.75;;;2.70;;
80653;SDS011;70020;45.524;10.240;2023-07-13T01:32:23;7.70;;;3.47;;
80653;SDS011;70020;45.524;10.240;2023-07-13T01:34:52;4.90;;;3.20;;
80653;SDS011;70020;45.524;10.240;2023-07-13T01:37:19;4.32;;;3.10;;
80653;SDS011;70020;45.524;10.240;2023-07-13T01:39:45;12.15;;;4.00;;
80653;SDS011;70020;45.524;10.240;2023-07-13T01:42:12;7.68;;;3.20;;
80653;SDS011;70020;45.524;10.240;2023-07-13T01:44:38;6.97;;;3.60;;
80653;SDS011;70020;45.524;10.240;2023-07-13T01:47:04;5.90;;;3.20;;
80653;SDS011;70020;45.524;10.240;2023-07-13T01:51:55;8.43;;;3.53;;
80653;SDS011;70020;45.524;10.240;2023-07-13T01:56:47;9.65;;;4.28;;
80653;SDS011;70020;45.524;10.240;2023-07-13T01:59:13;10.70;;;4.70;;
80653;SDS011;70020;45.524;10.240;2023-07-13T02:04:04;8.47;;;4.20;;
80653;SDS011;70020;45.524;10.240;2023-07-13T02:06:30;10.40;;;4.32;;
80653;SDS011;70020;45.524;10.240;2023-07-13T02:08:57;8.15;;;4.78;;
80653;SDS011;70020;45.524;10.240;2023-07-13T02:11:23;9.32;;;4.50;;
80653;SDS011;70020;45.524;10.240;2023-07-13T02:13:49;9.85;;;4.50;;
80653;SDS011;70020;45.524;10.240;2023-07-13T02:18:41;7.70;;;4.60;;
80653;SDS011;70020;45.524;10.240;2023-07-13T02:21:07;5.90;;;4.10;;
80653;SDS011;70020;45.524;10.240;2023-07-13T02:23:33;8.32;;;4.57;;
80653;SDS011;70020;45.524;10.240;2023-07-13T02:26:01;11.60;;;4.82;;
80653;SDS011;70020;45.524;10.240;2023-07-13T02:28:30;7.82;;;4.65;;
80653;SDS011;70020;45.524;10.240;2023-07-13T02:31:03;11.02;;;4.90;;
80653;SDS011;70020;45.524;10.240;2023-07-13T02:33:30;9.00;;;5.10;;
80653;SDS011;70020;45.524;10.240;2023-07-13T02:35:56;12.15;;;5.18;;
80653;SDS011;70020;45.524;10.240;2023-07-13T02:40:47;8.85;;;5.00;;
80653;SDS011;70020;45.524;10.240;2023-07-13T02:45:38;10.27;;;5.07;;
80653;SDS011;70020;45.524;10.240;2023-07-13T02:48:09;9.40;;;4.90;;
80653;SDS011;70020;45.524;10.240;2023-07-13T02:53:01;15.02;;;5.90;;
80653;SDS011;70020;45.524;10.240;2023-07-13T02:55:26;10.60;;;6.40;;
80653;SDS011;70020;45.524;10.240;2023-07-13T02:57:52;8.20;;;5.45;;
80653;SDS011;70020;45.524;10.240;2023-07-13T03:00:19;9.38;;;6.15;;
80653;SDS011;70020;45.524;10.240;2023-07-13T03:02:45;10.43;;;6.07;;
80653;SDS011;70020;45.524;10.240;2023-07-13T03:05:11;9.45;;;6.30;;
